sensor_id;sensor_type;location;lat;lon;timestamp;P1;durP1;ratioP1;P2;durP2;ratioP2
16845;SDS011;8539;53.188;8.696;2023-12-20T00:01:50;19.90;;;4.57;;
16845;SDS011;8539;53.188;8.696;2023-12-20T00:04:16;18.38;;;2.35;;
16845;SDS011;8539;53.188;8.696;2023-12-20T00:06:42;18.48;;;2.55;;
16845;SDS011;8539;53.188;8.696;2023-12-20T00:09:08;16.23;;;2.88;;
16845;SDS011;8539;53.188;8.696;2023-12-20T00:11:34;19.25;;;3.38;;
16845;SDS011;8539;53.188;8.696;2023-12-20T00:14:00;11.65;;;2.20;;
16845;SDS011;8539;53.188;8.696;2023-12-20T00:16:27;16.67;;;4.40;;
16845;SDS011;8539;53.188;8.696;2023-12-20T00:18:53;20.27;;;3.35;;
16845;SDS011;8539;53.188;8.696;2023-12-20T00:21:19;9.93;;;2.58;;
16845;SDS011;8539;53.188;8.696;2023-12-20T00:23:45;9.40;;;2.30;;
16845;SDS011;8539;53.188;8.696;2023-12-20T00:26:11;8.38;;;2.65;;
16845;SDS011;8539;53.188;8.696;2023-12-20T00:28:38;9.55;;;3.05;;
16845;SDS011;8539;53.188;8.696;2023-12-20T00:31:04;12.38;;;2.83;;
16845;SDS011;8539;53.188;8.696;2023-12-20T00:33:30;15.18;;;3.08;;
16845;SDS011;8539;53.188;8.696;2023-12-20T00:35:56;19.85;;;3.05;;
16845;SDS011;8539;53.188;8.696;2023-12-20T00:38:22;11.52;;;2.83;;
16845;SDS011;8539;53.188;8.696;2023-12-20T00:40:49;16.80;;;3.58;;
16845;SDS011;8539;53.188;8.696;2023-12-20T00:43:15;17.05;;;4.97;;
16845;SDS011;8539;53.188;8.696;2023-12-20T00:45:41;13.07;;;3.10;;
16845;SDS011;8539;53.188;8.696;2023-12-20T00:48:08;14.52;;;3.17;;
16845;SDS011;8539;53.188;8.696;2023-12-20T00:50:34;15.60;;;2.75;;
16845;SDS011;8539;53.188;8.696;2023-12-20T00:53:00;17.10;;;3.13;;
16845;SDS011;8539;53.188;8.696;2023-12-20T00:55:26;13.70;;;2.45;;
16845;SDS011;8539;53.188;8.696;2023-12-20T00:57:52;13.70;;;2.45;;
16845;SDS011;8539;53.188;8.696;2023-12-20T01:00:19;8.35;;;2.20;;
16845;SDS011;8539;53.188;8.696;2023-12-20T01:02:46;14.23;;;2.70;;
16845;SDS011;8539;53.188;8.696;2023-12-20T01:05:14;18.35;;;2.28;;
16845;SDS011;8539;53.188;8.696;2023-12-20T01:07:41;16.15;;;3.28;;
16845;SDS011;8539;53.188;8.696;2023-12-20T01:10:07;13.48;;;3.03;;
16845;SDS011;8539;53.188;8.696;2023-12-20T01:12:36;18.80;;;3.03;;
16845;SDS011;8539;53.188;8.696;2023-12-20T01:15:05;10.35;;;2.97;;
16845;SDS011;8539;53.188;8.696;2023-12-20T01:17:32;8.70;;;2.05;;
16845;SDS011;8539;53.188;8.696;2023-12-20T01:19:58;12.35;;;2.78;;
16845;SDS011;8539;53.188;8.696;2023-12-20T01:22:24;19.45;;;2.70;;
16845;SDS011;8539;53.188;8.696;2023-12-20T01:24:51;13.63;;;3.08;;
16845;SDS011;8539;53.188;8.696;2023-12-20T01:27:17;12.13;;;4.95;;
16845;SDS011;8539;53.188;8.696;2023-12-20T01:29:44;14.00;;;2.58;;
16845;SDS011;8539;53.188;8.696;2023-12-20T01:32:10;19.02;;;2.63;;
16845;SDS011;8539;53.188;8.696;2023-12-20T01:34:36;12.07;;;2.42;;
16845;SDS011;8539;53.188;8.696;2023-12-20T01:37:03;9.63;;;2.35;;
16845;SDS011;8539;53.188;8.696;2023-12-20T01:39:29;22.83;;;3.10;;
16845;SDS011;8539;53.188;8.696;2023-12-20T01:41:56;11.80;;;2.10;;
16845;SDS011;8539;53.188;8.696;2023-12-20T01:44:22;17.38;;;3.47;;
16845;SDS011;8539;53.188;8.696;2023-12-20T01:46:48;4.90;;;1.77;;
16845;SDS011;8539;53.188;8.696;2023-12-20T01:49:14;10.70;;;2.72;;
16845;SDS011;8539;53.188;8.696;2023-12-20T01:51:42;12.63;;;2.42;;
16845;SDS011;8539;53.188;8.696;2023-12-20T01:54:09;10.95;;;2.50;;
16845;SDS011;8539;53.188;8.696;2023-12-20T01:56:35;19.80;;;3.03;;
16845;SDS011;8539;53.188;8.696;2023-12-20T01:59:01;17.95;;;3.05;;
16845;SDS011;8539;53.188;8.696;2023-12-20T02:01:29;14.52;;;2.08;;
16845;SDS011;8539;53.188;8.696;2023-12-20T02:03:56;9.30;;;2.58;;
16845;SDS011;8539;53.188;8.696;2023-12-20T02:06:23;14.18;;;1.92;;
16845;SDS011;8539;53.188;8.696;2023-12-20T02:08:54;12.73;;;3.03;;
16845;SDS011;8539;53.188;8.696;2023-12-20T02:11:20;17.77;;;5.20;;
16845;SDS011;8539;53.188;8.696;2023-12-20T02:13:47;15.38;;;2.75;;
16845;SDS011;8539;53.188;8.696;2023-12-20T02:16:13;19.50;;;3.83;;
16845;SDS011;8539;53.188;8.696;2023-12-20T02:18:39;10.80;;;2.72;;
16845;SDS011;8539;53.188;8.696;2023-12-20T02:21:05;13.18;;;2.75;;
16845;SDS011;8539;53.188;8.696;2023-12-20T02:23:31;15.73;;;3.38;;
16845;SDS011;8539;53.188;8.696;2023-12-20T02:25:57;16.58;;;2.90;;
16845;SDS011;8539;53.188;8.696;2023-12-20T02:28:23;8.77;;;3.17;;
16845;SDS011;8539;53.188;8.696;2023-12-20T02:30:50;19.98;;;3.45;;
16845;SDS011;8539;53.188;8.696;2023-12-20T02:33:16;11.60;;;3.15;;
16845;SDS011;8539;53.188;8.696;2023-12-20T02:35:42;11.32;;;2.78;;
16845;SDS011;8539;53.188;8.696;2023-12-20T02:38:08;14.13;;;2.72;;
16845;SDS011;8539;53.188;8.696;2023-12-20T02:40:34;14.95;;;2.83;;
16845;SDS011;8539;53.188;8.696;2023-12-20T02:43:00;22.08;;;3.03;;
16845;SDS011;8539;53.188;8.696;2023-12-20T02:45:26;15.13;;;2.78;;
16845;SDS011;8539;53.188;8.696;2023-12-20T02:47:52;20.08;;;2.97;;
16845;SDS011;8539;53.188;8.696;2023-12-20T02:50:18;10.18;;;2.28;;
16845;SDS011;8539;53.188;8.696;2023-12-20T02:52:45;19.77;;;2.63;;
16845;SDS011;8539;53.188;8.696;2023-12-20T02:55:11;15.75;;;3.20;;
16845;SDS011;8539;53.188;8.696;2023-12-20T02:57:37;12.20;;;2.28;;
16845;SDS011;8539;53.188;8.696;2023-12-20T03:00:10;15.57;;;3.53;;
16845;SDS011;8539;53.188;8.696;2023-12-20T03:02:36;18.00;;;3.38;;
16845;SDS011;8539;53.188;8.696;2023-12-20T03:05:02;16.63;;;3.50;;
16845;SDS011;8539;53.188;8.696;2023-12-20T03:07:29;13.82;;;3.35;;
16845;SDS011;8539;53.188;8.696;2023-12-20T03:09:55;21.55;;;3.28;;
16845;SDS011;8539;53.188;8.696;2023-12-20T03:12:21;11.27;;;2.40;;
16845;SDS011;8539;53.188;8.696;2023-12-20T03:14:47;7.90;;;2.80;;
16845;SDS011;8539;53.188;8.696;2023-12-20T03:17:14;9.55;;;2.30;;
16845;SDS011;8539;53.188;8.696;2023-12-20T03:19:40;21.88;;;3.25;;
16845;SDS011;8539;53.188;8.696;2023-12-20T03:22:06;15.57;;;2.33;;
16845;SDS011;8539;53.188;8.696;2023-12-20T03:24:32;23.55;;;2.85;;
16845;SDS011;8539;53.188;8.696;2023-12-20T03:26:58;23.25;;;3.30;;
16845;SDS011;8539;53.188;8.696;2023-12-20T03:29:24;14.68;;;2.63;;
16845;SDS011;8539;53.188;8.696;2023-12-20T03:31:50;17.30;;;2.50;;
16845;SDS011;8539;53.188;8.696;2023-12-20T03:34:16;13.45;;;3.15;;
16845;SDS011;8539;53.188;8.696;2023-12-20T03:36:42;14.93;;;3.05;;
16845;SDS011;8539;53.188;8.696;2023-12-20T03:39:08;15.38;;;2.88;;
16845;SDS011;8539;53.188;8.696;2023-12-20T03:41:35;16.35;;;3.53;;
16845;SDS011;8539;53.188;8.696;2023-12-20T03:44:01;28.17;;;3.50;;
16845;SDS011;8539;53.188;8.696;2023-12-20T03:46:28;27.92;;;4.18;;
16845;SDS011;8539;53.188;8.696;2023-12-20T03:48:54;17.15;;;3.05;;
16845;SDS011;8539;53.188;8.696;2023-12-20T03:51:20;24.63;;;3.50;;
16845;SDS011;8539;53.188;8.696;2023-12-20T03:53:46;16.20;;;3.35;;
16845;SDS011;8539;53.188;8.696;2023-12-20T03:56:12;11.05;;;3.63;;
16845;SDS011;8539;53.188;8.696;2023-12-20T03:58:38;9.90;;;2.95;;
16845;SDS011;8539;53.188;8.696;2023-12-20T04:01:08;18.63;;;3.22;;
16845;SDS011;8539;53.188;8.696;2023-12-20T04:03:37;18.30;;;3.50;;
16845;SDS011;8539;53.188;8.696;2023-12-20T04:06:04;17.88;;;3.85;;
16845;SDS011;8539;53.188;8.696;2023-12-20T04:08:30;15.65;;;4.68;;
16845;SDS011;8539;53.188;8.696;2023-12-20T04:10:56;13.85;;;3.13;;
16845;SDS011;8539;53.188;8.696;2023-12-20T04:13:22;8.50;;;3.75;;
16845;SDS011;8539;53.188;8.696;2023-12-20T04:15:48;15.52;;;2.85;;
16845;SDS011;8539;53.188;8.696;2023-12-20T04:18:16;11.18;;;3.22;;
16845;SDS011;8539;53.188;8.696;2023-12-20T04:20:42;34.92;;;3.53;;
16845;SDS011;8539;53.188;8.696;2023-12-20T04:23:08;10.82;;;2.90;;
16845;SDS011;8539;53.188;8.696;2023-12-20T04:25:34;20.70;;;3.55;;
16845;SDS011;8539;53.188;8.696;2023-12-20T04:28:00;16.67;;;3.50;;
16845;SDS011;8539;53.188;8.696;2023-12-20T04:30:27;16.42;;;3.03;;
16845;SDS011;8539;53.188;8.696;2023-12-20T04:32:53;15.88;;;3.55;;
16845;SDS011;8539;53.188;8.696;2023-12-20T04:35:19;22.02;;;3.67;;
16845;SDS011;8539;53.188;8.696;2023-12-20T04:37:44;14.77;;;3.38;;
16845;SDS011;8539;53.188;8.696;2023-12-20T04:40:10;14.32;;;3.83;;
16845;SDS011;8539;53.188;8.696;2023-12-20T04:42:37;25.23;;;3.58;;
16845;SDS011;8539;53.188;8.696;2023-12-20T04:45:03;21.13;;;4.63;;
16845;SDS011;8539;53.188;8.696;2023-12-20T04:47:29;25.25;;;4.22;;
16845;SDS011;8539;53.188;8.696;2023-12-20T04:49:56;24.33;;;4.40;;
16845;SDS011;8539;53.188;8.696;2023-12-20T04:52:22;23.10;;;5.20;;
16845;SDS011;8539;53.188;8.696;2023-12-20T04:54:48;17.63;;;3.50;;
16845;SDS011;8539;53.188;8.696;2023-12-20T04:57:14;16.50;;;2.85;;
16845;SDS011;8539;53.188;8.696;2023-12-20T04:59:40;24.23;;;4.85;;
16845;SDS011;8539;53.188;8.696;2023-12-20T05:02:07;17.10;;;4.82;;
16845;SDS011;8539;53.188;8.696;2023-12-20T05:04:33;22.95;;;3.00;;
16845;SDS011;8539;53.188;8.696;2023-12-20T05:06:59;13.45;;;3.75;;
16845;SDS011;8539;53.188;8.696;2023-12-20T05:09:25;21.50;;;4.18;;
16845;SDS011;8539;53.188;8.696;2023-12-20T05:11:51;19.17;;;4.47;;
16845;SDS011;8539;53.188;8.696;2023-12-20T05:14:17;27.75;;;4.90;;
16845;SDS011;8539;53.188;8.696;2023-12-20T05:16:43;13.90;;;3.95;;
16845;SDS011;8539;53.188;8.696;2023-12-20T05:19:09;16.52;;;3.67;;
16845;SDS011;8539;53.188;8.696;2023-12-20T05:21:35;22.33;;;4.43;;
16845;SDS011;8539;53.188;8.696;2023-12-20T05:24:01;22.23;;;4.07;;
16845;SDS011;8539;53.188;8.696;2023-12-20T05:26:27;29.20;;;6.03;;
16845;SDS011;8539;53.188;8.696;2023-12-20T05:28:54;25.15;;;5.50;;
16845;SDS011;8539;53.188;8.696;2023-12-20T05:31:20;21.23;;;4.70;;
16845;SDS011;8539;53.188;8.696;2023-12-20T05:33:47;12.65;;;3.00;;
16845;SDS011;8539;53.188;8.696;2023-12-20T05:36:13;20.05;;;4.25;;
16845;SDS011;8539;53.188;8.696;2023-12-20T05:38:40;16.73;;;3.63;;
16845;SDS011;8539;53.188;8.696;2023-12-20T05:41:06;14.18;;;3.75;;
16845;SDS011;8539;53.188;8.696;2023-12-20T05:43:32;29.92;;;4.60;;
16845;SDS011;8539;53.188;8.696;2023-12-20T05:45:59;21.33;;;4.40;;
16845;SDS011;8539;53.188;8.696;2023-12-20T05:48:25;10.82;;;3.38;;
16845;SDS011;8539;53.188;8.696;2023-12-20T05:50:51;21.63;;;4.35;;
16845;SDS011;8539;53.188;8.696;2023-12-20T05:53:17;20.65;;;4.45;;
16845;SDS011;8539;53.188;8.696;2023-12-20T05:55:43;19.45;;;4.13;;
16845;SDS011;8539;53.188;8.696;2023-12-20T05:58:09;18.73;;;4.80;;
16845;SDS011;8539;53.188;8.696;2023-12-20T06:00:35;17.23;;;4.30;;
16845;SDS011;8539;53.188;8.696;2023-12-20T06:03:01;21.40;;;6.38;;
16845;SDS011;8539;53.188;8.696;2023-12-20T06:05:27;23.05;;;5.15;;
16845;SDS011;8539;53.188;8.696;2023-12-20T06:07:53;17.98;;;4.07;;
16845;SDS011;8539;53.188;8.696;2023-12-20T06:10:19;24.50;;;4.85;;
16845;SDS011;8539;53.188;8.696;2023-12-20T06:12:47;29.85;;;5.22;;
16845;SDS011;8539;53.188;8.696;2023-12-20T06:15:15;17.30;;;3.72;;
16845;SDS011;8539;53.188;8.696;2023-12-20T06:17:41;25.65;;;4.80;;
16845;SDS011;8539;53.188;8.696;2023-12-20T06:20:07;23.30;;;4.13;;
16845;SDS011;8539;53.188;8.696;2023-12-20T06:22:34;26.00;;;3.88;;
16845;SDS011;8539;53.188;8.696;2023-12-20T06:25:01;25.20;;;5.00;;
16845;SDS011;8539;53.188;8.696;2023-12-20T06:27:28;23.65;;;4.15;;
16845;SDS011;8539;53.188;8.696;2023-12-20T06:29:54;29.00;;;6.38;;
16845;SDS011;8539;53.188;8.696;2023-12-20T06:32:21;23.75;;;4.55;;
16845;SDS011;8539;53.188;8.696;2023-12-20T06:34:48;21.08;;;3.85;;
16845;SDS011;8539;53.188;8.696;2023-12-20T06:37:15;19.42;;;4.88;;
16845;SDS011;8539;53.188;8.696;2023-12-20T06:39:41;19.17;;;4.55;;
16845;SDS011;8539;53.188;8.696;2023-12-20T06:42:07;26.92;;;4.80;;
16845;SDS011;8539;53.188;8.696;2023-12-20T06:44:32;16.77;;;4.78;;
16845;SDS011;8539;53.188;8.696;2023-12-20T06:46:59;19.45;;;6.15;;
16845;SDS011;8539;53.188;8.696;2023-12-20T06:49:25;24.58;;;4.88;;
16845;SDS011;8539;53.188;8.696;2023-12-20T06:51:52;21.38;;;4.35;;
16845;SDS011;8539;53.188;8.696;2023-12-20T06:54:18;20.25;;;4.38;;
16845;SDS011;8539;53.188;8.696;2023-12-20T06:56:44;23.58;;;5.20;;
16845;SDS011;8539;53.188;8.696;2023-12-20T06:59:10;23.55;;;5.70;;
16845;SDS011;8539;53.188;8.696;2023-12-20T07:01:37;35.75;;;6.07;;
16845;SDS011;8539;53.188;8.696;2023-12-20T07:04:03;26.15;;;4.50;;
16845;SDS011;8539;53.188;8.696;2023-12-20T07:06:30;42.88;;;8.27;;
16845;SDS011;8539;53.188;8.696;2023-12-20T07:08:56;23.73;;;5.80;;
16845;SDS011;8539;53.188;8.696;2023-12-20T07:11:22;19.65;;;4.57;;
16845;SDS011;8539;53.188;8.696;2023-12-20T07:13:48;33.55;;;6.97;;
16845;SDS011;8539;53.188;8.696;2023-12-20T07:16:15;24.02;;;5.57;;
16845;SDS011;8539;53.188;8.696;2023-12-20T07:18:42;24.02;;;5.82;;
16845;SDS011;8539;53.188;8.696;2023-12-20T07:21:08;31.75;;;5.95;;
16845;SDS011;8539;53.188;8.696;2023-12-20T07:23:34;23.23;;;4.43;;
16845;SDS011;8539;53.188;8.696;2023-12-20T07:26:00;22.25;;;4.10;;
16845;SDS011;8539;53.188;8.696;2023-12-20T07:28:26;33.03;;;5.97;;
16845;SDS011;8539;53.188;8.696;2023-12-20T07:30:52;25.77;;;5.47;;
16845;SDS011;8539;53.188;8.696;2023-12-20T07:33:18;27.80;;;6.65;;
16845;SDS011;8539;53.188;8.696;2023-12-20T07:35:44;22.77;;;5.05;;
16845;SDS011;8539;53.188;8.696;2023-12-20T07:38:11;34.80;;;5.32;;
16845;SDS011;8539;53.188;8.696;2023-12-20T07:40:38;24.10;;;5.55;;
16845;SDS011;8539;53.188;8.696;2023-12-20T07:43:04;30.20;;;6.43;;
16845;SDS011;8539;53.188;8.696;2023-12-20T07:45:31;25.23;;;4.30;;
16845;SDS011;8539;53.188;8.696;2023-12-20T07:47:57;18.80;;;4.75;;
16845;SDS011;8539;53.188;8.696;2023-12-20T07:50:26;26.63;;;4.68;;
16845;SDS011;8539;53.188;8.696;2023-12-20T07:52:52;25.55;;;5.40;;
16845;SDS011;8539;53.188;8.696;2023-12-20T07:55:18;22.02;;;5.63;;
16845;SDS011;8539;53.188;8.696;2023-12-20T07:57:44;28.55;;;5.28;;
16845;SDS011;8539;53.188;8.696;2023-12-20T08:00:11;23.50;;;5.43;;
16845;SDS011;8539;53.188;8.696;2023-12-20T08:02:37;23.23;;;5.30;;
16845;SDS011;8539;53.188;8.696;2023-12-20T08:05:03;17.65;;;6.00;;
16845;SDS011;8539;53.188;8.696;2023-12-20T08:07:29;20.98;;;4.55;;
16845;SDS011;8539;53.188;8.696;2023-12-20T08:09:55;22.33;;;5.05;;
16845;SDS011;8539;53.188;8.696;2023-12-20T08:12:22;28.27;;;5.20;;
16845;SDS011;8539;53.188;8.696;2023-12-20T08:14:48;15.63;;;4.32;;
16845;SDS011;8539;53.188;8.696;2023-12-20T08:17:14;34.08;;;4.90;;
16845;SDS011;8539;53.188;8.696;2023-12-20T08:19:41;16.45;;;5.63;;
16845;SDS011;8539;53.188;8.696;2023-12-20T08:22:07;32.97;;;7.45;;
16845;SDS011;8539;53.188;8.696;2023-12-20T08:24:33;19.85;;;5.50;;
16845;SDS011;8539;53.188;8.696;2023-12-20T08:27:00;25.73;;;5.18;;
16845;SDS011;8539;53.188;8.696;2023-12-20T08:29:26;12.93;;;4.38;;
16845;SDS011;8539;53.188;8.696;2023-12-20T08:31:52;11.70;;;4.00;;
16845;SDS011;8539;53.188;8.696;2023-12-20T08:34:19;19.90;;;4.75;;
16845;SDS011;8539;53.188;8.696;2023-12-20T08:36:45;33.40;;;4.35;;
16845;SDS011;8539;53.188;8.696;2023-12-20T08:39:12;20.27;;;4.15;;
16845;SDS011;8539;53.188;8.696;2023-12-20T08:41:38;27.77;;;4.68;;
16845;SDS011;8539;53.188;8.696;2023-12-20T08:44:04;23.27;;;4.68;;
16845;SDS011;8539;53.188;8.696;2023-12-20T08:46:30;28.23;;;5.85;;
16845;SDS011;8539;53.188;8.696;2023-12-20T08:48:56;26.15;;;5.68;;
16845;SDS011;8539;53.188;8.696;2023-12-20T08:51:22;29.23;;;4.40;;
16845;SDS011;8539;53.188;8.696;2023-12-20T08:53:51;28.48;;;5.50;;
16845;SDS011;8539;53.188;8.696;2023-12-20T08:56:17;17.10;;;4.47;;
16845;SDS011;8539;53.188;8.696;2023-12-20T08:58:44;26.20;;;5.05;;
16845;SDS011;8539;53.188;8.696;2023-12-20T09:01:10;24.80;;;5.40;;
16845;SDS011;8539;53.188;8.696;2023-12-20T09:03:36;22.30;;;6.85;;
16845;SDS011;8539;53.188;8.696;2023-12-20T09:06:03;20.77;;;4.47;;
16845;SDS011;8539;53.188;8.696;2023-12-20T09:08:29;19.55;;;4.25;;
16845;SDS011;8539;53.188;8.696;2023-12-20T09:10:55;15.45;;;3.50;;
16845;SDS011;8539;53.188;8.696;2023-12-20T09:13:21;22.33;;;4.00;;
16845;SDS011;8539;53.188;8.696;2023-12-20T09:15:52;15.50;;;4.18;;
16845;SDS011;8539;53.188;8.696;2023-12-20T09:18:18;17.63;;;4.07;;
16845;SDS011;8539;53.188;8.696;2023-12-20T09:20:44;14.52;;;4.15;;
16845;SDS011;8539;53.188;8.696;2023-12-20T09:23:10;16.58;;;4.00;;
16845;SDS011;8539;53.188;8.696;2023-12-20T09:25:36;15.93;;;3.58;;
16845;SDS011;8539;53.188;8.696;2023-12-20T09:28:02;19.85;;;4.55;;
16845;SDS011;8539;53.188;8.696;2023-12-20T09:30:28;19.95;;;3.22;;
16845;SDS011;8539;53.188;8.696;2023-12-20T09:32:58;15.82;;;3.17;;
16845;SDS011;8539;53.188;8.696;2023-12-20T09:35:24;12.48;;;2.85;;
16845;SDS011;8539;53.188;8.696;2023-12-20T09:37:51;9.85;;;2.17;;
16845;SDS011;8539;53.188;8.696;2023-12-20T09:40:18;5.22;;;2.40;;
16845;SDS011;8539;53.188;8.696;2023-12-20T09:42:57;10.55;;;2.65;;
16845;SDS011;8539;53.188;8.696;2023-12-20T09:47:55;6.18;;;1.38;;
16845;SDS011;8539;53.188;8.696;2023-12-20T09:50:23;4.40;;;0.90;;
16845;SDS011;8539;53.188;8.696;2023-12-20T09:52:50;4.20;;;1.20;;
16845;SDS011;8539;53.188;8.696;2023-12-20T09:55:20;3.40;;;0.90;;
16845;SDS011;8539;53.188;8.696;2023-12-20T09:57:47;12.27;;;1.52;;
16845;SDS011;8539;53.188;8.696;2023-12-20T10:00:14;4.28;;;1.55;;
16845;SDS011;8539;53.188;8.696;2023-12-20T10:02:45;3.65;;;0.90;;
16845;SDS011;8539;53.188;8.696;2023-12-20T10:05:16;3.40;;;1.90;;
16845;SDS011;8539;53.188;8.696;2023-12-20T10:07:46;6.25;;;1.60;;
16845;SDS011;8539;53.188;8.696;2023-12-20T10:10:15;5.30;;;2.42;;
16845;SDS011;8539;53.188;8.696;2023-12-20T10:12:45;4.22;;;1.15;;
16845;SDS011;8539;53.188;8.696;2023-12-20T10:15:30;6.63;;;1.67;;
16845;SDS011;8539;53.188;8.696;2023-12-20T10:17:56;4.72;;;1.50;;
16845;SDS011;8539;53.188;8.696;2023-12-20T10:20:24;8.00;;;1.40;;
16845;SDS011;8539;53.188;8.696;2023-12-20T10:22:51;4.22;;;1.08;;
16845;SDS011;8539;53.188;8.696;2023-12-20T10:25:19;5.55;;;1.27;;
16845;SDS011;8539;53.188;8.696;2023-12-20T10:27:46;6.75;;;1.67;;
16845;SDS011;8539;53.188;8.696;2023-12-20T10:30:13;6.65;;;1.40;;
16845;SDS011;8539;53.188;8.696;2023-12-20T10:32:40;4.55;;;1.20;;
16845;SDS011;8539;53.188;8.696;2023-12-20T10:35:09;5.65;;;1.10;;
16845;SDS011;8539;53.188;8.696;2023-12-20T10:37:38;9.43;;;1.70;;
16845;SDS011;8539;53.188;8.696;2023-12-20T10:40:05;8.63;;;1.15;;
16845;SDS011;8539;53.188;8.696;2023-12-20T10:42:32;3.45;;;1.73;;
16845;SDS011;8539;53.188;8.696;2023-12-20T10:44:59;6.20;;;1.63;;
16845;SDS011;8539;53.188;8.696;2023-12-20T10:47:26;10.05;;;2.08;;
16845;SDS011;8539;53.188;8.696;2023-12-20T10:49:55;7.20;;;1.17;;
16845;SDS011;8539;53.188;8.696;2023-12-20T10:52:23;6.15;;;1.40;;
16845;SDS011;8539;53.188;8.696;2023-12-20T10:54:50;5.85;;;2.20;;
16845;SDS011;8539;53.188;8.696;2023-12-20T10:57:17;4.20;;;1.20;;
16845;SDS011;8539;53.188;8.696;2023-12-20T10:59:44;5.32;;;1.58;;
16845;SDS011;8539;53.188;8.696;2023-12-20T11:02:14;9.27;;;1.80;;
16845;SDS011;8539;53.188;8.696;2023-12-20T11:08:07;7.13;;;1.50;;
16845;SDS011;8539;53.188;8.696;2023-12-20T11:13:23;11.50;;;1.45;;
16845;SDS011;8539;53.188;8.696;2023-12-20T11:15:57;8.55;;;1.30;;
16845;SDS011;8539;53.188;8.696;2023-12-20T11:18:30;8.77;;;3.35;;
16845;SDS011;8539;53.188;8.696;2023-12-20T11:21:00;7.07;;;1.60;;
16845;SDS011;8539;53.188;8.696;2023-12-20T11:23:30;7.18;;;2.47;;
16845;SDS011;8539;53.188;8.696;2023-12-20T11:25:59;13.45;;;2.15;;
16845;SDS011;8539;53.188;8.696;2023-12-20T11:28:27;6.10;;;2.03;;
16845;SDS011;8539;53.188;8.696;2023-12-20T11:30:55;10.63;;;1.77;;
16845;SDS011;8539;53.188;8.696;2023-12-20T11:33:26;12.02;;;1.60;;
16845;SDS011;8539;53.188;8.696;2023-12-20T11:35:56;6.65;;;1.88;;
16845;SDS011;8539;53.188;8.696;2023-12-20T11:38:23;7.05;;;1.83;;
16845;SDS011;8539;53.188;8.696;2023-12-20T11:40:49;12.50;;;1.52;;
16845;SDS011;8539;53.188;8.696;2023-12-20T11:43:37;14.40;;;2.80;;
16845;SDS011;8539;53.188;8.696;2023-12-20T11:46:05;9.73;;;2.67;;
16845;SDS011;8539;53.188;8.696;2023-12-20T11:48:32;7.90;;;1.80;;
16845;SDS011;8539;53.188;8.696;2023-12-20T11:51:00;12.07;;;2.03;;
16845;SDS011;8539;53.188;8.696;2023-12-20T11:53:26;13.05;;;1.70;;
16845;SDS011;8539;53.188;8.696;2023-12-20T11:55:53;9.32;;;2.45;;
16845;SDS011;8539;53.188;8.696;2023-12-20T11:58:20;12.45;;;2.88;;
16845;SDS011;8539;53.188;8.696;2023-12-20T12:00:46;15.20;;;2.42;;
16845;SDS011;8539;53.188;8.696;2023-12-20T12:03:15;17.65;;;2.70;;
16845;SDS011;8539;53.188;8.696;2023-12-20T12:05:41;11.05;;;2.05;;
16845;SDS011;8539;53.188;8.696;2023-12-20T12:08:07;8.50;;;2.55;;
16845;SDS011;8539;53.188;8.696;2023-12-20T12:10:33;11.20;;;2.53;;
16845;SDS011;8539;53.188;8.696;2023-12-20T12:12:59;15.23;;;2.90;;
16845;SDS011;8539;53.188;8.696;2023-12-20T12:15:26;15.27;;;2.92;;
16845;SDS011;8539;53.188;8.696;2023-12-20T12:17:52;11.68;;;1.52;;
16845;SDS011;8539;53.188;8.696;2023-12-20T12:20:20;13.38;;;2.58;;
16845;SDS011;8539;53.188;8.696;2023-12-20T12:22:46;6.68;;;1.92;;
16845;SDS011;8539;53.188;8.696;2023-12-20T12:25:26;6.07;;;1.73;;
16845;SDS011;8539;53.188;8.696;2023-12-20T12:27:55;5.47;;;1.65;;
16845;SDS011;8539;53.188;8.696;2023-12-20T12:30:21;5.20;;;1.88;;
16845;SDS011;8539;53.188;8.696;2023-12-20T12:32:47;8.65;;;1.70;;
16845;SDS011;8539;53.188;8.696;2023-12-20T12:35:14;9.60;;;2.85;;
16845;SDS011;8539;53.188;8.696;2023-12-20T12:37:40;14.10;;;2.40;;
16845;SDS011;8539;53.188;8.696;2023-12-20T12:42:37;17.58;;;3.13;;
16845;SDS011;8539;53.188;8.696;2023-12-20T12:45:03;7.53;;;3.17;;
16845;SDS011;8539;53.188;8.696;2023-12-20T12:47:30;18.77;;;2.80;;
16845;SDS011;8539;53.188;8.696;2023-12-20T12:49:57;12.05;;;2.90;;
16845;SDS011;8539;53.188;8.696;2023-12-20T12:52:23;19.50;;;3.20;;
16845;SDS011;8539;53.188;8.696;2023-12-20T12:54:49;11.73;;;2.80;;
16845;SDS011;8539;53.188;8.696;2023-12-20T12:57:15;12.85;;;3.00;;
16845;SDS011;8539;53.188;8.696;2023-12-20T12:59:42;14.80;;;3.10;;
16845;SDS011;8539;53.188;8.696;2023-12-20T13:02:11;10.07;;;2.65;;
16845;SDS011;8539;53.188;8.696;2023-12-20T13:04:38;15.60;;;3.45;;
16845;SDS011;8539;53.188;8.696;2023-12-20T13:07:05;13.75;;;2.65;;
16845;SDS011;8539;53.188;8.696;2023-12-20T13:09:31;17.77;;;4.60;;
16845;SDS011;8539;53.188;8.696;2023-12-20T13:11:57;14.82;;;3.00;;
16845;SDS011;8539;53.188;8.696;2023-12-20T13:14:24;12.52;;;2.38;;
16845;SDS011;8539;53.188;8.696;2023-12-20T13:16:50;12.90;;;2.80;;
16845;SDS011;8539;53.188;8.696;2023-12-20T13:19:16;17.83;;;3.13;;
16845;SDS011;8539;53.188;8.696;2023-12-20T13:21:42;15.95;;;4.00;;
16845;SDS011;8539;53.188;8.696;2023-12-20T13:24:08;18.05;;;3.65;;
16845;SDS011;8539;53.188;8.696;2023-12-20T13:26:34;18.45;;;2.78;;
16845;SDS011;8539;53.188;8.696;2023-12-20T13:29:00;9.80;;;2.75;;
16845;SDS011;8539;53.188;8.696;2023-12-20T13:31:26;14.82;;;3.38;;
16845;SDS011;8539;53.188;8.696;2023-12-20T13:33:52;22.63;;;3.50;;
16845;SDS011;8539;53.188;8.696;2023-12-20T13:36:18;11.75;;;3.17;;
16845;SDS011;8539;53.188;8.696;2023-12-20T13:38:45;16.35;;;3.00;;
16845;SDS011;8539;53.188;8.696;2023-12-20T13:41:11;16.80;;;3.83;;
16845;SDS011;8539;53.188;8.696;2023-12-20T13:43:37;12.75;;;4.00;;
16845;SDS011;8539;53.188;8.696;2023-12-20T13:46:03;10.82;;;3.22;;
16845;SDS011;8539;53.188;8.696;2023-12-20T13:48:29;18.65;;;3.88;;
16845;SDS011;8539;53.188;8.696;2023-12-20T13:50:55;8.55;;;3.40;;
16845;SDS011;8539;53.188;8.696;2023-12-20T13:53:22;19.67;;;4.00;;
16845;SDS011;8539;53.188;8.696;2023-12-20T13:55:48;16.08;;;3.38;;
16845;SDS011;8539;53.188;8.696;2023-12-20T13:58:15;16.05;;;2.90;;
16845;SDS011;8539;53.188;8.696;2023-12-20T14:00:41;19.88;;;3.47;;
16845;SDS011;8539;53.188;8.696;2023-12-20T14:03:07;15.40;;;3.53;;
16845;SDS011;8539;53.188;8.696;2023-12-20T14:05:34;18.27;;;3.63;;
16845;SDS011;8539;53.188;8.696;2023-12-20T14:08:01;11.98;;;3.15;;
16845;SDS011;8539;53.188;8.696;2023-12-20T14:10:27;21.15;;;4.90;;
16845;SDS011;8539;53.188;8.696;2023-12-20T14:12:53;17.63;;;4.00;;
16845;SDS011;8539;53.188;8.696;2023-12-20T14:15:20;14.45;;;3.13;;
16845;SDS011;8539;53.188;8.696;2023-12-20T14:17:46;17.85;;;3.67;;
16845;SDS011;8539;53.188;8.696;2023-12-20T14:20:12;21.33;;;3.75;;
16845;SDS011;8539;53.188;8.696;2023-12-20T14:22:38;17.95;;;3.90;;
16845;SDS011;8539;53.188;8.696;2023-12-20T14:25:15;17.00;;;3.65;;
16845;SDS011;8539;53.188;8.696;2023-12-20T14:27:42;15.82;;;2.90;;
16845;SDS011;8539;53.188;8.696;2023-12-20T14:30:09;20.90;;;3.65;;
16845;SDS011;8539;53.188;8.696;2023-12-20T14:32:35;16.65;;;3.13;;
16845;SDS011;8539;53.188;8.696;2023-12-20T14:35:05;14.40;;;3.65;;
16845;SDS011;8539;53.188;8.696;2023-12-20T14:37:32;14.85;;;2.88;;
16845;SDS011;8539;53.188;8.696;2023-12-20T14:39:58;13.60;;;2.55;;
16845;SDS011;8539;53.188;8.696;2023-12-20T14:42:24;13.23;;;4.40;;
16845;SDS011;8539;53.188;8.696;2023-12-20T14:44:50;16.05;;;4.18;;
16845;SDS011;8539;53.188;8.696;2023-12-20T14:47:17;15.15;;;3.42;;
16845;SDS011;8539;53.188;8.696;2023-12-20T14:49:44;27.15;;;4.05;;
16845;SDS011;8539;53.188;8.696;2023-12-20T14:52:10;13.45;;;2.78;;
16845;SDS011;8539;53.188;8.696;2023-12-20T14:54:36;20.50;;;4.07;;
16845;SDS011;8539;53.188;8.696;2023-12-20T14:57:03;14.75;;;2.97;;
16845;SDS011;8539;53.188;8.696;2023-12-20T14:59:29;20.13;;;3.58;;